createdAt,value
2022-11-15T00:04:57.522Z,11.83
2022-11-15T00:09:58.677Z,11.94
2022-11-15T00:14:59.829Z,11.89
2022-11-15T00:20:00.945Z,11.70
2022-11-15T00:25:02.034Z,11.54
2022-11-15T00:30:03.322Z,11.60
2022-11-15T00:35:05.191Z,11.77
2022-11-15T00:40:07.551Z,12.01
2022-11-15T00:45:09.501Z,12.16
2022-11-15T00:50:14.834Z,12.31
2022-11-15T00:55:18.824Z,12.39
2022-11-15T01:00:20.043Z,12.49
2022-11-15T01:05:22.854Z,11.92
2022-11-15T01:10:25.998Z,10.29
2022-11-15T01:15:27.212Z,9.56
2022-11-15T01:20:28.589Z,10.56
2022-11-15T01:25:29.758Z,11.36
2022-11-15T01:30:30.933Z,11.76
2022-11-15T01:35:32.148Z,12.05
2022-11-15T01:40:33.145Z,12.23
2022-11-15T01:45:34.341Z,12.23
2022-11-15T01:50:35.416Z,12.39
2022-11-15T01:55:37.239Z,12.36
2022-11-15T02:00:38.702Z,12.37
2022-11-15T02:05:41.373Z,11.46
2022-11-15T02:10:42.548Z,10.42
2022-11-15T02:16:02.815Z,11.06
2022-11-15T02:21:30.926Z,11.44
2022-11-15T02:26:50.680Z,11.53
2022-11-15T02:32:20.948Z,11.38
2022-11-15T02:37:25.147Z,11.30
2022-11-15T02:42:49.176Z,11.39
2022-11-15T02:47:54.275Z,11.41
2022-11-15T02:52:56.129Z,11.44
2022-11-15T02:58:37.397Z,11.49
2022-11-15T03:03:41.475Z,11.46
2022-11-15T03:08:43.119Z,11.43
2022-11-15T03:13:44.171Z,11.48
2022-11-15T03:18:54.049Z,11.36
2022-11-15T03:23:58.789Z,11.38
2022-11-15T03:29:22.586Z,11.43
2022-11-15T03:34:47.555Z,11.40
2022-11-15T03:39:49.075Z,11.53
2022-11-15T03:45:02.718Z,11.66
2022-11-15T03:50:11.138Z,11.74
2022-11-15T03:55:16.946Z,11.87
2022-11-15T04:00:18.259Z,11.95
2022-11-15T04:05:19.735Z,11.80
2022-11-15T04:10:20.996Z,11.76
2022-11-15T04:15:24.045Z,11.69
2022-11-15T04:20:47.953Z,11.45
2022-11-15T04:25:52.188Z,11.41
2022-11-15T04:30:53.581Z,11.54
2022-11-15T04:36:13.239Z,11.56
2022-11-15T04:41:14.404Z,11.49
2022-11-15T04:46:15.503Z,11.58
2022-11-15T04:51:16.610Z,11.69
2022-11-15T04:56:17.738Z,11.66
2022-11-15T05:01:18.912Z,11.69
2022-11-15T05:06:20.122Z,11.62
2022-11-15T05:11:21.524Z,11.46
2022-11-15T05:16:23.333Z,11.49
2022-11-15T05:21:24.303Z,11.60
2022-11-15T05:26:25.760Z,11.62
2022-11-15T05:31:27.491Z,11.73
2022-11-15T05:36:35.016Z,11.68
2022-11-15T05:41:44.385Z,11.62
2022-11-15T05:46:47.149Z,11.68
2022-11-15T05:51:48.737Z,11.75
2022-11-15T05:56:51.031Z,11.73
2022-11-15T06:01:52.269Z,11.70
2022-11-15T06:06:53.470Z,11.76
2022-11-15T06:11:54.684Z,11.79
2022-11-15T06:16:55.797Z,11.83
2022-11-15T06:21:56.772Z,11.95
2022-11-15T06:26:58.051Z,12.04
2022-11-15T06:32:00.169Z,12.13
2022-11-15T06:37:02.417Z,12.18
2022-11-15T06:42:03.665Z,12.16
2022-11-15T06:47:04.707Z,11.91
2022-11-15T06:52:06.201Z,11.69
2022-11-15T06:57:07.625Z,11.63
2022-11-15T07:02:14.032Z,11.78
2022-11-15T07:07:15.478Z,11.91
2022-11-15T07:12:16.582Z,11.99
2022-11-15T07:17:17.659Z,11.85
2022-11-15T07:22:18.786Z,11.72
2022-11-15T07:27:19.786Z,11.59
2022-11-15T07:32:21.115Z,11.45
2022-11-15T07:37:22.679Z,11.50
2022-11-15T07:42:41.738Z,11.47
2022-11-15T07:47:46.403Z,11.49
2022-11-15T07:52:47.526Z,11.54
2022-11-15T07:57:48.670Z,11.74
2022-11-15T08:02:50.038Z,11.99
2022-11-15T08:07:54.921Z,12.08
2022-11-15T08:13:15.159Z,12.23
2022-11-15T08:18:17.198Z,12.30
2022-11-15T08:23:18.382Z,12.30
2022-11-15T08:28:19.515Z,11.87
2022-11-15T08:33:20.571Z,10.25
2022-11-15T08:38:21.741Z,9.69
2022-11-15T08:43:23.049Z,10.66
2022-11-15T08:48:24.147Z,11.32
2022-11-15T08:53:25.824Z,11.69
2022-11-15T08:58:27.425Z,12.00
2022-11-15T09:03:28.629Z,12.27
2022-11-15T09:08:48.185Z,12.45
2022-11-15T09:13:50.050Z,12.60
2022-11-15T09:18:51.281Z,12.57
2022-11-15T09:23:53.220Z,12.44
2022-11-15T09:28:54.360Z,12.47
2022-11-15T09:33:55.830Z,12.52
2022-11-15T09:38:58.521Z,12.55
2022-11-15T09:44:37.739Z,12.65
2022-11-15T09:49:38.975Z,11.63
2022-11-15T09:54:53.202Z,10.29
2022-11-15T10:00:38.701Z,10.07
2022-11-15T10:05:32.219Z,11.21
2022-11-15T10:10:40.784Z,11.71
2022-11-15T10:15:45.813Z,12.04
2022-11-15T10:20:51.154Z,12.28
2022-11-15T10:25:55.261Z,12.37
2022-11-15T10:30:59.406Z,12.38
2022-11-15T10:36:21.082Z,12.44
2022-11-15T10:41:28.252Z,12.51
2022-11-15T10:46:46.011Z,12.54
2022-11-15T10:51:49.862Z,12.66
2022-11-15T10:56:54.041Z,12.74
2022-11-15T11:01:55.853Z,12.79
2022-11-15T11:06:59.995Z,12.86
2022-11-15T11:12:03.003Z,12.41
2022-11-15T11:17:31.023Z,10.85
2022-11-15T11:22:48.371Z,10.44
2022-11-15T11:28:11.279Z,11.49
2022-11-15T11:33:16.800Z,12.10
2022-11-15T11:38:49.989Z,12.50
2022-11-15T11:44:18.113Z,12.86
2022-11-15T11:49:27.152Z,12.37
2022-11-15T11:54:50.224Z,10.78
2022-11-15T12:00:31.361Z,9.69
2022-11-15T12:05:37.906Z,9.93
2022-11-15T12:10:40.471Z,11.08
2022-11-15T12:15:51.497Z,11.74
2022-11-15T12:20:58.980Z,12.05
2022-11-15T12:26:17.549Z,12.13
2022-11-15T12:31:41.364Z,12.32
2022-11-15T12:36:46.520Z,12.54
2022-11-15T12:42:06.292Z,12.71
2022-11-15T12:47:07.403Z,12.15
2022-11-15T12:52:09.559Z,10.45
2022-11-15T12:57:16.797Z,9.34
2022-11-15T13:02:26.804Z,9.22
2022-11-15T13:07:46.669Z,10.36
2022-11-15T13:12:47.810Z,11.13
2022-11-15T13:17:51.577Z,11.59
2022-11-15T13:23:13.080Z,11.84
2022-11-15T13:28:14.404Z,12.06
2022-11-15T13:33:37.043Z,12.20
2022-11-15T13:38:40.056Z,12.35
2022-11-15T13:43:41.187Z,12.12
2022-11-15T13:48:43.483Z,10.51
2022-11-15T13:53:49.048Z,9.33
2022-11-15T13:58:50.305Z,9.15
2022-11-15T14:04:01.569Z,10.18
2022-11-15T14:09:14.968Z,10.70
2022-11-15T14:14:16.211Z,11.07
2022-11-15T14:19:20.165Z,11.45
2022-11-15T14:24:22.028Z,11.74
2022-11-15T14:29:25.551Z,11.93
2022-11-15T14:34:27.806Z,12.03
2022-11-15T14:39:29.149Z,12.14
2022-11-15T14:44:30.355Z,11.68
2022-11-15T14:49:31.383Z,10.08
2022-11-15T14:54:32.457Z,8.96
2022-11-15T14:59:33.481Z,8.80
2022-11-15T15:04:34.701Z,10.02
2022-11-15T15:09:36.147Z,10.92
2022-11-15T15:14:38.275Z,11.43
2022-11-15T15:19:39.695Z,11.75
2022-11-15T15:24:41.839Z,11.96
2022-11-15T15:29:43.394Z,12.05
2022-11-15T15:34:44.763Z,12.15
2022-11-15T15:39:45.908Z,12.26
2022-11-15T15:44:50.013Z,12.36
2022-11-15T15:49:51.753Z,11.46
2022-11-15T15:54:52.940Z,10.03
2022-11-15T15:59:54.057Z,8.99
2022-11-15T16:04:55.233Z,8.86
2022-11-15T16:10:02.659Z,9.99
2022-11-15T16:15:04.460Z,10.69
2022-11-15T16:20:05.825Z,11.19
2022-11-15T16:25:07.686Z,11.55
2022-11-15T16:30:14.850Z,11.85
2022-11-15T16:35:17.042Z,12.01
2022-11-15T16:40:23.664Z,12.01
2022-11-15T16:45:25.108Z,11.97
2022-11-15T16:50:34.584Z,11.95
2022-11-15T16:55:35.747Z,11.98
2022-11-15T17:00:36.975Z,12.06
2022-11-15T17:05:38.332Z,12.15
2022-11-15T17:10:43.525Z,12.15
2022-11-15T17:15:45.307Z,11.54
2022-11-15T17:20:46.416Z,9.84
2022-11-15T17:25:47.411Z,9.21
2022-11-15T17:30:48.534Z,10.05
2022-11-15T17:36:00.146Z,10.58
2022-11-15T17:41:08.622Z,10.86
2022-11-15T17:46:16.788Z,11.14
2022-11-15T17:51:18.811Z,11.42
2022-11-15T17:56:22.308Z,11.57
2022-11-15T18:01:26.592Z,11.74
2022-11-15T18:06:30.441Z,11.90
2022-11-15T18:11:40.650Z,12.01
2022-11-15T18:16:42.300Z,12.35
2022-11-15T18:22:02.881Z,12.60
2022-11-15T18:27:05.510Z,12.09
2022-11-15T18:32:11.905Z,10.56
2022-11-15T18:37:14.624Z,9.54
2022-11-15T18:42:15.809Z,9.42
2022-11-15T18:47:16.802Z,10.36
2022-11-15T18:52:17.997Z,10.95
2022-11-15T18:57:19.143Z,11.27
2022-11-15T19:02:20.158Z,11.50
2022-11-15T19:07:21.644Z,11.72
2022-11-15T19:12:22.926Z,11.92
2022-11-15T19:17:24.070Z,12.04
2022-11-15T19:22:25.168Z,12.17
2022-11-15T19:27:26.325Z,12.25
2022-11-15T19:32:27.480Z,12.39
2022-11-15T19:37:28.678Z,12.47
2022-11-15T19:42:29.697Z,12.60
2022-11-15T19:47:31.113Z,12.72
2022-11-15T19:52:32.128Z,12.25
2022-11-15T19:57:33.356Z,10.66
2022-11-15T20:02:34.549Z,10.85
2022-11-15T20:07:35.728Z,11.47
2022-11-15T20:12:38.320Z,11.88
2022-11-15T20:17:39.454Z,12.13
2022-11-15T20:22:40.451Z,12.34
2022-11-15T20:27:41.689Z,12.47
2022-11-15T20:32:42.818Z,12.62
2022-11-15T20:37:44.762Z,12.41
2022-11-15T20:42:46.178Z,10.89
2022-11-15T20:47:47.273Z,9.78
2022-11-15T20:52:48.276Z,10.22
2022-11-15T20:57:50.179Z,11.11
2022-11-15T21:02:52.561Z,11.67
2022-11-15T21:07:53.855Z,11.98
2022-11-15T21:12:54.973Z,12.27
2022-11-15T21:17:56.123Z,12.52
2022-11-15T21:22:57.102Z,12.68
2022-11-15T21:27:58.437Z,12.43
2022-11-15T21:32:59.548Z,10.84
2022-11-15T21:38:00.691Z,9.60
2022-11-15T21:43:01.653Z,9.40
2022-11-15T21:48:03.500Z,10.50
2022-11-15T21:53:04.985Z,11.13
2022-11-15T21:58:06.003Z,11.55
2022-11-15T22:03:07.290Z,11.85
2022-11-15T22:08:08.508Z,11.98
2022-11-15T22:13:09.734Z,12.06
2022-11-15T22:18:12.150Z,12.22
2022-11-15T22:23:13.357Z,12.40
2022-11-15T22:28:15.301Z,12.47
2022-11-15T22:33:18.344Z,12.48
2022-11-15T22:38:19.609Z,12.43
2022-11-15T22:43:23.674Z,12.36
2022-11-15T22:48:37.301Z,12.32
2022-11-15T22:53:38.990Z,12.34
2022-11-15T22:58:40.284Z,12.41
2022-11-15T23:03:41.562Z,12.47
2022-11-15T23:08:42.966Z,12.32
2022-11-15T23:13:44.270Z,12.14
2022-11-15T23:18:45.504Z,11.97
2022-11-15T23:23:47.072Z,12.02
2022-11-15T23:28:48.144Z,12.09
2022-11-15T23:34:08.117Z,12.15
2022-11-15T23:39:10.597Z,12.33
2022-11-15T23:44:11.830Z,12.34
2022-11-15T23:49:13.111Z,12.44
2022-11-15T23:54:15.246Z,12.45
2022-11-15T23:59:16.589Z,12.47
